Time;durP1;ratioP1;P1;durP2;ratioP2;P2;SDS_P1;SDS_P2;PMS_P1;PMS_P2;Temp;Humidity;BMP_temperature;BMP_pressure;BME280_temperature;BME280_humidity;BME280_pressure;Samples;Min_cycle;Max_cycle;Signal;HPM_P1;HPM_P2
2022/07/10 00:00:17;;;;;;;8.35;2.10;;;15.20;99.90;;;;;;5071530;28;20139;-70
2022/07/10 00:02:43;;;;;;;5.47;1.70;;;15.10;99.90;;;;;;5072638;28;20041;-70
2022/07/10 00:05:10;;;;;;;9.68;2.00;;;15.20;99.90;;;;;;5073048;28;20407;-70
2022/07/10 00:07:36;;;;;;;12.10;2.15;;;15.10;99.90;;;;;;5054449;28;20084;-70
2022/07/10 00:10:03;;;;;;;8.30;1.80;;;15.40;99.90;;;;;;5071140;28;20078;-70
2022/07/10 00:12:29;;;;;;;5.88;1.75;;;15.50;99.90;;;;;;5056704;28;20048;-70
2022/07/10 00:14:54;;;;;;;9.18;1.80;;;15.00;99.90;;;;;;5051495;28;20131;-70
2022/07/10 00:17:20;;;;;;;10.90;1.90;;;15.00;99.90;;;;;;5070281;28;20190;-70
2022/07/10 00:19:46;;;;;;;8.55;1.90;;;15.00;99.90;;;;;;5063285;28;20044;-70
2022/07/10 00:22:11;;;;;;;8.65;1.73;;;15.60;99.90;;;;;;5074319;28;20040;-70
2022/07/10 00:24:37;;;;;;;8.52;1.80;;;15.10;99.90;;;;;;5069652;28;20040;-70
2022/07/10 00:27:03;;;;;;;8.15;1.90;;;15.10;99.90;;;;;;5048041;28;20400;-70
2022/07/10 00:29:29;;;;;;;9.27;2.00;;;14.90;99.90;;;;;;5050295;28;20084;-70
2022/07/10 00:31:54;;;;;;;7.45;1.95;;;15.00;99.90;;;;;;5055823;28;20161;-70
2022/07/10 00:34:20;;;;;;;9.05;1.70;;;15.00;99.90;;;;;;5050952;28;20053;-70
2022/07/10 00:36:46;;;;;;;5.45;1.75;;;15.00;99.90;;;;;;5050844;28;20350;-70
2022/07/10 00:39:12;;;;;;;9.85;1.90;;;15.20;99.90;;;;;;5051165;28;20040;-70
2022/07/10 00:41:38;;;;;;;9.45;1.90;;;15.00;99.90;;;;;;5068529;28;20032;-70
2022/07/10 00:44:04;;;;;;;7.22;1.90;;;15.10;99.90;;;;;;5054245;28;20071;-70
2022/07/10 00:46:31;;;;;;;8.82;1.73;;;15.10;99.90;;;;;;5062576;28;20049;-70
2022/07/10 00:48:57;;;;;;;10.00;2.00;;;15.10;99.90;;;;;;5076551;28;20380;-70
2022/07/10 00:51:28;;;;;;;8.27;1.70;;;15.10;99.90;;;;;;5076712;28;20048;-70
2022/07/10 00:53:55;;;;;;;13.65;2.25;;;15.30;99.90;;;;;;5089190;28;20040;-70
2022/07/10 00:56:24;;;;;;;8.98;1.85;;;15.10;99.90;;;;;;5070458;28;20130;-70
2022/07/10 00:58:51;;;;;;;15.20;2.08;;;15.00;99.90;;;;;;5088746;28;20148;-70
2022/07/10 01:01:17;;;;;;;11.57;2.00;;;15.10;99.90;;;;;;5062316;28;20392;-70
2022/07/10 01:03:45;;;;;;;11.90;2.28;;;15.10;99.90;;;;;;5068913;28;20055;-70
2022/07/10 01:06:11;;;;;;;11.32;2.30;;;15.00;99.90;;;;;;5067077;28;20134;-71
2022/07/10 01:08:37;;;;;;;10.57;1.90;;;15.00;99.90;;;;;;5068254;28;20120;-70
2022/07/10 01:11:03;;;;;;;9.98;2.20;;;15.00;99.90;;;;;;5050422;28;20493;-70
2022/07/10 01:13:29;;;;;;;14.85;2.00;;;14.90;99.90;;;;;;5084040;28;20123;-69
2022/07/10 01:15:55;;;;;;;8.55;1.88;;;14.90;99.90;;;;;;5068164;28;20059;-70
2022/07/10 01:18:22;;;;;;;13.20;2.38;;;14.90;99.90;;;;;;5054877;28;20124;-70
2022/07/10 01:20:55;;;;;;;9.02;1.70;;;14.90;99.90;;;;;;5051022;28;20459;-69
2022/07/10 01:23:21;;;;;;;10.10;1.80;;;14.90;99.90;;;;;;5079413;28;20149;-70
2022/07/10 01:25:48;;;;;;;8.73;2.13;;;14.90;99.90;;;;;;5055642;28;20064;-71
2022/07/10 01:28:15;;;;;;;9.80;1.88;;;14.90;99.90;;;;;;5067914;28;20589;-71
2022/07/10 01:30:41;;;;;;;9.70;1.85;;;14.80;99.90;;;;;;5069719;28;20760;-71
2022/07/10 01:33:07;;;;;;;8.05;1.73;;;14.80;99.90;;;;;;5069333;28;20090;-71
2022/07/10 01:35:32;;;;;;;7.55;2.05;;;14.80;99.90;;;;;;5069626;28;20104;-71
2022/07/10 01:37:58;;;;;;;9.55;1.83;;;14.80;99.90;;;;;;5086240;28;20461;-70
2022/07/10 01:40:24;;;;;;;11.95;2.00;;;14.80;99.90;;;;;;5067520;28;20163;-69
2022/07/10 01:42:50;;;;;;;8.95;1.85;;;14.80;99.90;;;;;;5068491;28;20526;-69
2022/07/10 01:45:16;;;;;;;9.38;1.80;;;14.80;99.90;;;;;;5069101;28;20036;-71
2022/07/10 01:47:43;;;;;;;8.02;1.63;;;14.80;99.90;;;;;;5067632;28;20116;-70
2022/07/10 01:50:09;;;;;;;8.18;1.83;;;14.90;99.90;;;;;;5067380;28;20069;-71
2022/07/10 01:52:35;;;;;;;13.65;1.95;;;15.30;99.90;;;;;;5047166;28;20051;-71
2022/07/10 01:55:01;;;;;;;8.55;1.60;;;14.80;99.90;;;;;;5083894;28;20048;-71
2022/07/10 01:57:26;;;;;;;9.45;2.00;;;14.80;99.90;;;;;;5085907;28;20055;-71
2022/07/10 01:59:52;;;;;;;10.20;1.92;;;15.10;99.90;;;;;;5069992;28;20040;-71
2022/07/10 02:02:18;;;;;;;7.53;1.60;;;15.10;99.90;;;;;;5070019;28;20143;-71
2022/07/10 02:04:44;;;;;;;11.02;2.10;;;14.70;99.90;;;;;;5087138;28;20055;-71
2022/07/10 02:07:15;;;;;;;8.07;1.70;;;14.90;99.90;;;;;;5071679;28;20116;-71
2022/07/10 02:09:42;;;;;;;7.03;2.00;;;14.60;99.90;;;;;;5056994;28;20313;-71
2022/07/10 02:12:09;;;;;;;7.85;2.05;;;14.60;99.90;;;;;;5067637;28;20055;-71
2022/07/10 02:14:35;;;;;;;9.60;1.70;;;14.60;99.90;;;;;;5087848;28;20036;-71
2022/07/10 02:17:01;;;;;;;9.70;1.77;;;14.70;99.90;;;;;;5088193;28;20048;-71
2022/07/10 02:19:27;;;;;;;10.55;2.08;;;14.50;99.90;;;;;;5087427;28;20066;-71
2022/07/10 02:21:53;;;;;;;11.15;2.05;;;14.70;99.90;;;;;;5087100;28;20100;-70
2022/07/10 02:24:19;;;;;;;7.65;1.55;;;15.00;99.90;;;;;;5068279;28;20055;-71
2022/07/10 02:26:44;;;;;;;6.78;1.60;;;14.40;99.90;;;;;;5065954;28;20040;-71
2022/07/10 02:29:10;;;;;;;9.35;1.85;;;14.40;99.90;;;;;;5072478;28;20044;-71
2022/07/10 02:31:40;;;;;;;11.43;2.25;;;14.40;99.90;;;;;;5070910;28;20075;-71
2022/07/10 02:34:13;;;;;;;9.65;2.00;;;14.40;99.90;;;;;;5069241;28;20056;-71
2022/07/10 02:36:39;;;;;;;9.18;2.03;;;14.40;99.90;;;;;;5048782;28;20051;-71
2022/07/10 02:39:06;;;;;;;9.65;2.28;;;14.40;99.90;;;;;;5067499;28;20096;-71
2022/07/10 02:41:31;;;;;;;7.90;1.67;;;14.40;99.90;;;;;;5066236;28;20068;-71
2022/07/10 02:43:57;;;;;;;11.13;1.90;;;14.40;99.90;;;;;;5049502;28;20488;-71
2022/07/10 02:46:23;;;;;;;9.20;1.80;;;14.50;99.90;;;;;;5050192;28;20044;-71
2022/07/10 02:48:49;;;;;;;8.20;1.95;;;14.50;99.90;;;;;;5049684;28;20052;-71
2022/07/10 02:51:14;;;;;;;8.98;2.05;;;14.50;99.90;;;;;;5066295;28;20605;-71
2022/07/10 02:53:40;;;;;;;8.98;1.80;;;14.50;99.90;;;;;;5066843;28;20048;-72
2022/07/10 02:56:06;;;;;;;9.13;1.90;;;14.60;99.90;;;;;;5066590;28;20036;-72
2022/07/10 02:58:33;;;;;;;11.02;2.20;;;14.60;99.90;;;;;;5082674;28;20484;-71
2022/07/10 03:00:58;;;;;;;11.40;2.10;;;14.60;99.90;;;;;;5060120;28;20059;-71
2022/07/10 03:03:24;;;;;;;8.63;1.98;;;14.60;99.90;;;;;;5066547;28;20049;-71
2022/07/10 03:05:49;;;;;;;11.30;2.05;;;14.60;99.90;;;;;;5066817;28;20499;-71
2022/07/10 03:08:15;;;;;;;8.30;1.92;;;15.50;99.90;;;;;;5090107;28;20050;-71
2022/07/10 03:10:41;;;;;;;7.85;1.70;;;15.50;99.90;;;;;;5075891;28;20066;-72
2022/07/10 03:13:07;;;;;;;10.90;1.77;;;14.60;99.90;;;;;;5073794;28;20046;-71
2022/07/10 03:15:32;;;;;;;9.38;1.80;;;14.60;99.90;;;;;;5089914;28;20044;-72
2022/07/10 03:17:58;;;;;;;10.77;1.90;;;14.60;99.90;;;;;;5091406;28;20123;-71
2022/07/10 03:20:24;;;;;;;10.20;1.92;;;14.60;99.90;;;;;;5072431;28;20059;-71
2022/07/10 03:22:49;;;;;;;8.95;2.08;;;14.60;99.90;;;;;;5082319;28;20041;-71
2022/07/10 03:25:15;;;;;;;7.57;2.00;;;14.60;99.90;;;;;;5071800;28;20040;-71
2022/07/10 03:27:41;;;;;;;14.13;2.13;;;14.70;99.90;;;;;;5063087;28;20068;-70
2022/07/10 03:30:08;;;;;;;8.43;2.20;;;14.70;99.90;;;;;;5050757;28;20056;-70
2022/07/10 03:32:33;;;;;;;9.68;2.42;;;14.70;99.90;;;;;;5053832;28;20102;-70
2022/07/10 03:34:59;;;;;;;8.30;1.73;;;14.80;99.90;;;;;;5055071;28;20044;-70
2022/07/10 03:37:25;;;;;;;8.25;1.77;;;14.70;99.90;;;;;;5069317;28;20106;-70
2022/07/10 03:39:51;;;;;;;10.55;1.90;;;14.80;99.90;;;;;;5070580;28;20052;-70
2022/07/10 03:42:17;;;;;;;11.52;1.88;;;14.90;99.90;;;;;;5072051;28;20533;-70
2022/07/10 03:44:43;;;;;;;10.40;2.20;;;14.90;99.90;;;;;;5071228;28;20127;-70
2022/07/10 03:47:08;;;;;;;7.35;1.92;;;14.90;99.90;;;;;;5071500;28;20501;-70
2022/07/10 03:49:34;;;;;;;9.75;2.00;;;14.90;99.90;;;;;;5052576;28;20058;-71
2022/07/10 03:52:02;;;;;;;13.23;2.40;;;14.90;99.90;;;;;;5069112;28;20048;-71
2022/07/10 03:54:31;;;;;;;8.10;2.15;;;15.60;99.90;;;;;;5073525;28;20491;-71
2022/07/10 03:59:42;;;;;;;10.50;2.30;;;15.00;99.90;;;;;;5079568;28;20068;-70
2022/07/10 04:02:07;;;;;;;10.02;2.35;;;15.30;99.90;;;;;;5074370;28;20111;-70
2022/07/10 04:04:33;;;;;;;10.10;2.13;;;15.10;99.90;;;;;;5069041;28;20056;-70
2022/07/10 04:06:58;;;;;;;9.80;2.20;;;15.10;99.90;;;;;;5070303;28;20393;-70
2022/07/10 04:09:24;;;;;;;12.50;2.30;;;15.20;99.90;;;;;;5076885;28;20427;-70
2022/07/10 04:11:50;;;;;;;7.80;1.90;;;15.20;99.90;;;;;;5053634;28;20130;-70
2022/07/10 04:14:15;;;;;;;10.88;2.38;;;16.00;99.90;;;;;;5090424;28;20043;-71
2022/07/10 04:16:41;;;;;;;16.55;2.22;;;15.20;99.90;;;;;;5085294;28;20036;-71
2022/07/10 04:19:06;;;;;;;17.27;2.30;;;15.20;99.90;;;;;;5069276;28;20063;-70
2022/07/10 04:21:32;;;;;;;10.90;2.28;;;15.30;99.90;;;;;;5071193;28;20174;-71
2022/07/10 04:23:58;;;;;;;9.38;2.20;;;15.30;99.90;;;;;;5071872;28;20114;-70
2022/07/10 04:26:23;;;;;;;10.35;2.58;;;15.30;99.90;;;;;;5075457;28;20047;-70
2022/07/10 04:28:49;;;;;;;12.88;2.45;;;15.30;99.90;;;;;;5056380;28;20028;-70
2022/07/10 04:31:14;;;;;;;9.75;2.22;;;15.40;99.90;;;;;;5051623;28;20137;-71
2022/07/10 04:33:40;;;;;;;11.05;2.25;;;15.30;99.90;;;;;;5051224;28;20119;-71
2022/07/10 04:36:06;;;;;;;10.93;2.45;;;15.40;99.90;;;;;;5071012;28;20040;-71
2022/07/10 04:38:32;;;;;;;8.88;2.25;;;15.40;99.90;;;;;;5071423;28;20105;-70
2022/07/10 04:40:58;;;;;;;11.68;2.25;;;15.40;99.90;;;;;;5068458;28;20130;-71
2022/07/10 04:43:23;;;;;;;8.90;2.00;;;15.40;99.90;;;;;;5089320;28;20036;-70
2022/07/10 04:45:49;;;;;;;8.40;2.45;;;15.50;99.90;;;;;;5090599;28;20161;-70
2022/07/10 04:48:14;;;;;;;8.27;2.22;;;15.50;99.90;;;;;;5088548;28;20060;-71
2022/07/10 04:50:40;;;;;;;12.18;2.40;;;15.50;99.90;;;;;;5055284;28;20472;-70
2022/07/10 04:53:06;;;;;;;9.93;2.13;;;15.60;99.90;;;;;;5058653;28;20503;-71
2022/07/10 04:55:32;;;;;;;11.45;2.13;;;15.70;99.90;;;;;;5088924;28;20079;-70
2022/07/10 04:57:58;;;;;;;6.45;1.90;;;15.60;99.90;;;;;;5060489;28;20489;-70
2022/07/10 05:00:23;;;;;;;9.02;2.17;;;15.70;99.90;;;;;;5050298;28;20044;-70
2022/07/10 05:02:49;;;;;;;6.50;2.00;;;15.70;99.90;;;;;;5051314;28;20052;-71
2022/07/10 05:05:15;;;;;;;8.07;2.00;;;15.70;99.90;;;;;;5069054;28;20052;-71
2022/07/10 05:07:40;;;;;;;9.35;2.35;;;15.80;99.90;;;;;;5067572;28;20029;-71
2022/07/10 05:10:06;;;;;;;7.55;1.73;;;15.90;99.90;;;;;;5069001;28;20127;-71
2022/07/10 05:12:32;;;;;;;7.32;1.77;;;15.80;99.90;;;;;;5050603;28;20466;-71
2022/07/10 05:14:59;;;;;;;10.68;2.10;;;16.10;99.90;;;;;;5068462;28;20420;-71
2022/07/10 05:17:26;;;;;;;10.52;1.90;;;16.10;99.90;;;;;;5040123;28;20047;-70
2022/07/10 05:19:53;;;;;;;7.47;1.90;;;16.20;99.90;;;;;;5089416;28;20553;-70
2022/07/10 05:22:19;;;;;;;10.35;1.95;;;15.90;99.90;;;;;;5049126;28;20057;-71
2022/07/10 05:24:44;;;;;;;9.05;1.90;;;15.90;99.90;;;;;;5069787;28;20488;-71
2022/07/10 05:27:10;;;;;;;10.93;2.00;;;15.90;99.90;;;;;;5046963;28;20378;-70
2022/07/10 05:29:36;;;;;;;10.70;2.03;;;16.00;99.90;;;;;;5044119;28;20516;-70
2022/07/10 05:32:02;;;;;;;10.65;1.92;;;16.30;99.90;;;;;;5068188;28;20053;-71
2022/07/10 05:34:27;;;;;;;7.75;1.80;;;16.00;99.90;;;;;;5072209;28;20182;-70
2022/07/10 05:36:53;;;;;;;8.65;2.08;;;16.00;99.90;;;;;;5067151;28;20469;-70
2022/07/10 05:39:19;;;;;;;6.40;1.80;;;16.30;99.90;;;;;;5068244;28;20072;-70
2022/07/10 05:41:44;;;;;;;9.65;2.50;;;16.10;99.90;;;;;;5067778;28;20076;-70
2022/07/10 05:44:10;;;;;;;9.48;1.90;;;16.90;99.90;;;;;;5068187;28;20484;-70
2022/07/10 05:46:36;;;;;;;8.57;1.90;;;16.20;99.90;;;;;;5050589;28;20135;-70
2022/07/10 05:49:01;;;;;;;8.25;1.95;;;16.30;99.90;;;;;;5068453;28;20040;-70
2022/07/10 05:51:27;;;;;;;10.50;2.10;;;16.30;99.90;;;;;;5066382;28;20486;-70
2022/07/10 05:53:52;;;;;;;8.98;2.00;;;16.30;99.90;;;;;;5050060;28;20048;-70
2022/07/10 05:56:18;;;;;;;7.95;2.20;;;16.50;99.90;;;;;;5050040;28;20189;-69
2022/07/10 05:58:44;;;;;;;8.85;2.17;;;16.20;99.90;;;;;;5050012;28;20373;-70
2022/07/10 06:01:09;;;;;;;12.13;2.15;;;16.50;99.90;;;;;;5042196;28;20463;-70
2022/07/10 06:03:35;;;;;;;8.23;1.85;;;16.50;99.90;;;;;;5051107;28;20401;-70
2022/07/10 06:06:01;;;;;;;13.10;2.03;;;16.20;99.90;;;;;;5049645;28;20052;-70
2022/07/10 06:08:27;;;;;;;11.00;2.10;;;16.20;99.90;;;;;;5066907;28;20413;-70
2022/07/10 06:10:52;;;;;;;9.80;2.10;;;16.20;99.90;;;;;;5067773;28;20041;-70
2022/07/10 06:13:18;;;;;;;9.55;2.00;;;16.20;99.90;;;;;;5067388;28;20551;-69
2022/07/10 06:15:44;;;;;;;9.52;2.22;;;16.10;99.90;;;;;;5068399;28;20421;-69
2022/07/10 06:18:10;;;;;;;7.65;1.98;;;16.10;99.90;;;;;;5066473;28;20036;-69
2022/07/10 06:20:35;;;;;;;7.40;1.90;;;16.20;99.90;;;;;;5068841;28;20040;-69
2022/07/10 06:23:01;;;;;;;9.25;2.05;;;16.20;99.90;;;;;;5067078;28;20397;-69
2022/07/10 06:25:27;;;;;;;10.25;2.13;;;16.30;99.90;;;;;;5066834;28;20127;-70
2022/07/10 06:27:52;;;;;;;8.38;2.03;;;16.40;99.90;;;;;;5040409;28;20033;-69
2022/07/10 06:30:18;;;;;;;9.73;2.20;;;16.30;99.90;;;;;;5047414;28;20045;-72
2022/07/10 06:32:44;;;;;;;10.48;2.22;;;16.50;99.90;;;;;;5061089;28;20053;-69
2022/07/10 06:35:10;;;;;;;10.80;2.40;;;16.40;99.90;;;;;;5074610;28;20132;-70
2022/07/10 06:37:36;;;;;;;11.25;2.22;;;16.40;99.90;;;;;;5055469;28;20378;-69
2022/07/10 06:40:02;;;;;;;8.07;2.10;;;16.30;99.90;;;;;;5076544;28;20053;-70
2022/07/10 06:42:27;;;;;;;9.80;2.25;;;16.30;99.90;;;;;;5055567;28;20044;-70
2022/07/10 06:44:53;;;;;;;9.35;2.20;;;16.30;99.90;;;;;;5075500;28;20040;-69
2022/07/10 06:50:06;;;;;;;9.35;2.15;;;16.20;99.90;;;;;;5072225;28;20051;-69
2022/07/10 06:52:33;;;;;;;9.45;2.30;;;16.20;99.90;;;;;;5055089;28;20147;-69
2022/07/10 06:55:00;;;;;;;7.85;2.15;;;16.30;99.90;;;;;;5053623;28;20116;-69
2022/07/10 06:57:25;;;;;;;10.07;2.00;;;16.30;99.90;;;;;;5053238;28;20094;-70
2022/07/10 06:59:52;;;;;;;7.30;2.15;;;16.30;99.90;;;;;;5070698;28;20052;-69
2022/07/10 07:02:18;;;;;;;9.18;2.10;;;16.40;99.90;;;;;;5076869;28;20120;-69
2022/07/10 07:04:46;;;;;;;6.50;1.70;;;16.40;99.90;;;;;;5076450;28;20124;-70
2022/07/10 07:07:12;;;;;;;8.40;1.50;;;16.50;99.90;;;;;;5054451;28;20048;-70
2022/07/10 07:09:39;;;;;;;6.32;1.88;;;16.60;99.90;;;;;;5074023;28;20072;-70
2022/07/10 07:12:05;;;;;;;8.98;1.85;;;17.20;99.90;;;;;;5055525;28;20052;-69
2022/07/10 07:14:31;;;;;;;7.35;1.83;;;16.60;99.90;;;;;;5076429;28;20055;-70
2022/07/10 07:16:58;;;;;;;11.30;2.08;;;17.00;99.90;;;;;;5074395;28;20040;-70
2022/07/10 07:23:09;;;;;;;8.13;2.22;;;17.10;99.90;;;;;;5073713;28;20041;-69
2022/07/10 07:25:06;;;;;;;5.45;1.65;;;16.60;99.90;;;;;;5073666;28;20044;-69
2022/07/10 07:27:33;;;;;;;6.03;2.00;;;16.40;99.90;;;;;;5066896;28;20116;-70
2022/07/10 07:30:02;;;;;;;8.43;2.28;;;16.50;99.90;;;;;;5053324;28;20041;-70
2022/07/10 07:32:28;;;;;;;7.30;1.90;;;16.40;99.90;;;;;;5053162;28;20061;-70
2022/07/10 07:34:54;;;;;;;9.07;2.00;;;16.40;99.90;;;;;;5054241;28;20056;-69
2022/07/10 07:37:19;;;;;;;7.80;1.63;;;16.40;99.90;;;;;;5058076;28;20195;-69
2022/07/10 07:39:45;;;;;;;6.82;1.90;;;16.90;99.90;;;;;;5080430;28;20045;-70
2022/07/10 07:42:10;;;;;;;5.05;1.52;;;16.50;99.90;;;;;;5073921;28;20113;-70
2022/07/10 07:44:36;;;;;;;4.80;1.30;;;16.50;99.90;;;;;;5072798;28;20085;-69
2022/07/10 07:47:02;;;;;;;3.40;1.15;;;16.60;99.90;;;;;;5069747;28;20047;-70
2022/07/10 07:49:27;;;;;;;5.97;1.30;;;16.60;99.90;;;;;;5069544;28;20040;-70
2022/07/10 07:51:53;;;;;;;5.03;1.35;;;16.70;99.90;;;;;;5051339;28;20121;-70
2022/07/10 07:54:19;;;;;;;4.65;1.40;;;17.30;99.90;;;;;;5070650;28;20036;-70
2022/07/10 07:56:44;;;;;;;4.00;1.30;;;16.90;99.90;;;;;;5070376;28;20045;-70
2022/07/10 07:59:12;;;;;;;8.90;1.50;;;17.40;99.90;;;;;;5074299;28;20045;-69
2022/07/10 08:01:38;;;;;;;5.70;1.60;;;17.30;99.90;;;;;;5070722;28;20044;-70
2022/07/10 08:04:03;;;;;;;7.68;1.50;;;17.00;99.90;;;;;;5085059;28;20048;-70
2022/07/10 08:06:29;;;;;;;7.28;1.50;;;16.90;99.90;;;;;;5070403;28;20539;-70
2022/07/10 08:08:55;;;;;;;5.55;1.60;;;17.00;99.90;;;;;;5065270;28;20147;-70
2022/07/10 08:11:20;;;;;;;4.88;1.48;;;16.90;99.90;;;;;;5032418;28;20069;-71
2022/07/10 08:13:46;;;;;;;5.00;1.33;;;17.00;99.90;;;;;;5032463;28;20045;-69
2022/07/10 08:16:12;;;;;;;9.25;2.08;;;17.30;99.90;;;;;;5049277;28;20041;-69
2022/07/10 08:18:37;;;;;;;6.00;1.60;;;16.90;99.90;;;;;;5049967;28;20045;-69
2022/07/10 08:21:03;;;;;;;5.35;1.70;;;16.90;99.90;;;;;;5049105;28;20055;-70
2022/07/10 08:23:29;;;;;;;7.70;1.80;;;16.90;99.90;;;;;;5048931;28;20060;-69
2022/07/10 08:25:54;;;;;;;5.40;1.70;;;17.00;99.90;;;;;;5058685;28;20044;-69
2022/07/10 08:28:20;;;;;;;4.55;1.50;;;17.10;99.90;;;;;;5056397;28;20140;-69
2022/07/10 08:30:46;;;;;;;5.55;1.83;;;17.30;99.90;;;;;;5050915;28;20048;-69
2022/07/10 08:33:11;;;;;;;4.53;1.30;;;17.50;99.90;;;;;;5050922;28;20064;-68
2022/07/10 08:35:37;;;;;;;3.85;1.60;;;17.60;99.90;;;;;;5047477;28;20068;-69
2022/07/10 08:38:05;;;;;;;7.38;1.45;;;17.70;99.90;;;;;;5032851;28;20257;-69
2022/07/10 08:40:36;;;;;;;5.55;1.50;;;17.60;99.90;;;;;;5068178;28;20044;-69
2022/07/10 08:43:02;;;;;;;4.63;1.30;;;17.70;99.90;;;;;;5067170;28;20048;-69
2022/07/10 08:45:32;;;;;;;3.97;1.10;;;17.70;99.90;;;;;;5068299;28;20119;-69
2022/07/10 08:48:02;;;;;;;7.75;1.45;;;18.20;99.90;;;;;;5069462;28;20080;-69
2022/07/10 08:50:30;;;;;;;4.07;1.20;;;17.90;99.90;;;;;;5069304;28;20054;-70
2022/07/10 08:53:09;;;;;;;6.13;1.10;;;18.20;99.90;;;;;;5068154;28;20037;-69
2022/07/10 08:55:36;;;;;;;4.32;1.38;;;18.00;99.90;;;;;;5051189;28;20055;-69
2022/07/10 08:58:04;;;;;;;4.47;1.10;;;18.10;99.90;;;;;;5050147;28;20493;-70
2022/07/10 09:00:30;;;;;;;4.40;1.30;;;18.10;99.90;;;;;;5082222;28;20098;-69
2022/07/10 09:02:56;;;;;;;5.93;1.35;;;18.20;99.90;;;;;;5048970;28;20037;-70
2022/07/10 09:05:23;;;;;;;5.13;1.27;;;18.20;99.90;;;;;;5049183;28;20044;-69
2022/07/10 09:07:50;;;;;;;5.63;1.33;;;18.00;99.90;;;;;;5050548;28;20039;-70
2022/07/10 09:10:19;;;;;;;5.10;1.52;;;18.20;99.90;;;;;;5053738;28;20127;-69
2022/07/10 09:12:56;;;;;;;3.08;1.20;;;18.30;99.90;;;;;;5037630;28;20056;-69
2022/07/10 09:15:26;;;;;;;4.82;1.20;;;18.40;99.90;;;;;;5047952;28;20440;-69
2022/07/10 09:18:07;;;;;;;3.65;1.20;;;18.60;99.90;;;;;;5048495;28;20041;-69
2022/07/10 09:20:38;;;;;;;3.72;1.35;;;18.60;99.90;;;;;;5043943;28;20556;-68
2022/07/10 09:23:21;;;;;;;4.28;1.20;;;18.60;99.90;;;;;;5027446;28;20402;-69
2022/07/10 09:25:51;;;;;;;3.00;1.10;;;18.70;99.90;;;;;;5048299;28;20041;-69
2022/07/10 09:28:21;;;;;;;4.18;1.35;;;18.50;99.90;;;;;;5050785;28;20051;-70
2022/07/10 09:30:48;;;;;;;5.43;1.50;;;18.50;99.90;;;;;;5049114;28;20103;-69
2022/07/10 09:33:27;;;;;;;3.63;1.40;;;18.50;99.90;;;;;;5044540;28;20080;-69
2022/07/10 09:36:12;;;;;;;4.65;1.30;;;18.40;99.90;;;;;;5047463;28;20124;-69
2022/07/10 09:38:44;;;;;;;4.57;1.60;;;18.20;99.90;;;;;;5047578;28;20406;-69
2022/07/10 09:41:18;;;;;;;4.78;1.50;;;18.00;99.90;;;;;;5029270;28;20135;-69
2022/07/10 09:43:48;;;;;;;4.28;1.50;;;17.80;99.90;;;;;;5060160;28;20166;-69
2022/07/10 09:46:14;;;;;;;3.88;1.65;;;17.80;99.90;;;;;;5061951;28;20126;-69
2022/07/10 09:48:41;;;;;;;5.15;1.60;;;17.70;99.90;;;;;;5047516;28;20044;-69
2022/07/10 09:51:11;;;;;;;5.95;1.60;;;17.60;99.90;;;;;;5066014;28;20051;-70
2022/07/10 09:53:44;;;;;;;5.30;1.67;;;17.40;99.90;;;;;;5064021;28;20057;-70
2022/07/10 09:56:12;;;;;;;6.40;1.70;;;17.30;99.90;;;;;;5031638;28;20509;-68
2022/07/10 09:58:38;;;;;;;3.90;1.50;;;17.30;99.90;;;;;;5049403;28;20048;-69
2022/07/10 10:01:08;;;;;;;5.88;1.63;;;17.10;99.90;;;;;;5046129;28;20045;-69
2022/07/10 10:03:38;;;;;;;3.55;1.42;;;17.20;99.90;;;;;;5029113;28;20045;-69
2022/07/10 10:06:18;;;;;;;6.10;1.60;;;17.10;99.90;;;;;;5047143;28;20163;-69
2022/07/10 10:08:56;;;;;;;9.30;1.92;;;17.30;99.90;;;;;;5046394;28;20406;-69
2022/07/10 10:11:25;;;;;;;5.57;1.70;;;17.40;99.90;;;;;;5029679;28;20052;-69
2022/07/10 10:13:52;;;;;;;5.63;1.92;;;17.50;99.90;;;;;;5050629;28;20432;-70
2022/07/10 10:16:19;;;;;;;6.63;1.75;;;17.60;99.90;;;;;;5029184;28;20056;-69
2022/07/10 10:21:30;;;;;;;7.32;2.00;;;18.00;99.90;;;;;;5046234;28;20092;-70
2022/07/10 10:23:56;;;;;;;6.32;2.20;;;17.60;99.90;;;;;;5028705;28;20083;-70
2022/07/10 10:26:23;;;;;;;5.60;2.20;;;17.50;99.90;;;;;;5048849;28;20053;-69
2022/07/10 10:28:52;;;;;;;2.65;1.33;;;17.70;99.90;;;;;;5047983;28;20390;-69
2022/07/10 10:31:19;;;;;;;3.22;1.40;;;17.30;99.90;;;;;;5045924;28;20072;-70
2022/07/10 10:33:46;;;;;;;5.78;1.90;;;17.30;99.90;;;;;;5063274;28;20405;-69
2022/07/10 10:36:36;;;;;;;4.50;1.90;;;17.60;99.90;;;;;;5028250;28;20159;-70
2022/07/10 10:39:10;;;;;;;6.28;1.90;;;17.90;99.90;;;;;;5046115;28;20048;-69
2022/07/10 10:41:38;;;;;;;4.97;2.17;;;18.30;99.90;;;;;;5046685;28;20052;-70
2022/07/10 10:44:23;;;;;;;6.45;2.13;;;18.40;99.90;;;;;;5048452;28;20083;-76
2022/07/10 10:46:56;;;;;;;7.50;2.13;;;18.20;99.90;;;;;;5049307;28;20065;-80
2022/07/10 10:49:27;;;;;;;8.50;2.47;;;18.00;99.90;;;;;;5047709;28;20403;-80
2022/07/10 10:51:59;;;;;;;7.18;2.40;;;17.90;99.90;;;;;;5028749;28;20052;-80
2022/07/10 10:54:26;;;;;;;6.97;2.15;;;17.80;99.90;;;;;;5066706;28;20123;-79
2022/07/10 10:57:15;;;;;;;6.88;2.38;;;17.70;99.90;;;;;;5046868;28;20075;-80
2022/07/10 10:59:48;;;;;;;7.10;1.98;;;17.40;99.90;;;;;;5028164;28;20405;-78
2022/07/10 11:02:40;;;;;;;5.00;1.95;;;17.20;99.90;;;;;;5047078;28;20505;-78
2022/07/10 11:05:12;;;;;;;7.68;2.22;;;17.30;99.90;;;;;;5042591;28;20113;-77
2022/07/10 11:08:00;;;;;;;7.00;2.67;;;17.30;99.90;;;;;;5045847;28;20131;-76
2022/07/10 11:10:45;;;;;;;11.05;4.15;;;17.40;99.90;;;;;;5044360;28;20548;-77
2022/07/10 11:13:18;;;;;;;12.80;5.33;;;17.50;99.90;;;;;;5022462;28;20076;-78
2022/07/10 11:15:44;;;;;;;9.07;3.10;;;17.80;99.90;;;;;;5043371;28;20037;-78
2022/07/10 11:18:11;;;;;;;10.10;4.90;;;18.10;99.90;;;;;;5024963;28;20052;-79
2022/07/10 11:20:49;;;;;;;8.80;3.63;;;18.40;99.90;;;;;;5008805;28;20079;-77
2022/07/10 11:23:42;;;;;;;10.13;3.67;;;18.60;99.90;;;;;;5046321;28;20041;-79
2022/07/10 11:26:11;;;;;;;10.18;3.85;;;18.80;99.90;;;;;;5044447;28;20053;-79
2022/07/10 11:28:53;;;;;;;5.88;2.20;;;19.00;99.90;;;;;;5028367;28;20041;-80
2022/07/10 11:31:20;;;;;;;13.13;3.30;;;19.00;99.90;;;;;;5061203;28;20414;-75
2022/07/10 11:33:49;;;;;;;13.43;2.80;;;18.80;99.90;;;;;;5046512;28;20127;-76
2022/07/10 11:36:18;;;;;;;7.43;2.70;;;18.70;99.90;;;;;;5044861;28;20053;-73
2022/07/10 11:38:44;;;;;;;10.32;2.83;;;18.60;99.90;;;;;;5046442;28;20080;-73
2022/07/10 11:41:23;;;;;;;7.30;2.50;;;18.50;99.90;;;;;;5025440;28;20089;-73
2022/07/10 11:43:54;;;;;;;5.25;2.28;;;18.50;99.90;;;;;;5046443;28;20485;-76
2022/07/10 11:46:25;;;;;;;7.53;2.17;;;18.60;99.90;;;;;;5045623;28;20076;-75
2022/07/10 11:48:53;;;;;;;6.97;2.28;;;19.00;99.90;;;;;;5047407;28;20045;-76
2022/07/10 11:51:26;;;;;;;8.95;2.47;;;18.80;99.90;;;;;;5051031;28;20041;-75
2022/07/10 11:53:57;;;;;;;10.60;2.30;;;18.60;99.90;;;;;;5043594;28;20442;-85
2022/07/10 11:56:24;;;;;;;6.38;2.10;;;18.90;99.90;;;;;;5050514;28;20036;-83
2022/07/10 11:59:00;;;;;;;9.98;2.10;;;18.40;99.90;;;;;;5071142;28;20040;-84
2022/07/10 12:01:28;;;;;;;6.72;2.20;;;18.40;99.90;;;;;;5053543;28;20052;-84
2022/07/10 12:03:58;;;;;;;7.63;2.30;;;18.50;99.90;;;;;;5050134;28;20045;-84
2022/07/10 12:06:25;;;;;;;9.70;2.00;;;18.50;99.90;;;;;;5058719;28;20041;-83
2022/07/10 12:08:51;;;;;;;4.72;1.90;;;18.50;99.90;;;;;;5036251;28;20047;-83
2022/07/10 12:11:19;;;;;;;7.78;2.00;;;19.30;99.90;;;;;;5042684;28;20121;-83
2022/07/10 12:13:46;;;;;;;9.70;1.90;;;18.90;99.90;;;;;;5032130;28;20048;-84
2022/07/10 12:16:13;;;;;;;6.47;1.83;;;18.70;99.90;;;;;;5035797;28;20099;-84
2022/07/10 12:18:41;;;;;;;4.47;1.60;;;18.30;99.90;;;;;;5030303;28;20073;-83
2022/07/10 12:21:08;;;;;;;7.93;2.10;;;18.30;99.90;;;;;;5064490;28;20091;-85
2022/07/10 12:23:40;;;;;;;5.03;1.65;;;18.50;99.90;;;;;;5048417;28;20394;-83
2022/07/10 12:26:09;;;;;;;5.15;1.60;;;18.70;99.90;;;;;;5030889;28;20064;-84
2022/07/10 12:28:56;;;;;;;5.93;1.58;;;18.80;99.90;;;;;;5066569;28;20047;-77
2022/07/10 12:31:23;;;;;;;5.75;1.70;;;18.60;99.90;;;;;;5046499;28;20049;-78
2022/07/10 12:33:54;;;;;;;6.47;1.65;;;18.50;99.90;;;;;;5064287;28;20037;-72
2022/07/10 12:36:21;;;;;;;6.05;1.70;;;18.60;99.90;;;;;;5047862;28;20156;-72
2022/07/10 12:38:57;;;;;;;4.60;1.50;;;18.90;99.90;;;;;;5030257;28;20155;-72
2022/07/10 12:41:24;;;;;;;6.05;1.88;;;18.50;99.90;;;;;;5047567;28;20145;-71
2022/07/10 12:43:50;;;;;;;8.10;1.92;;;18.40;99.90;;;;;;5027617;28;20057;-72
2022/07/10 12:46:19;;;;;;;5.60;1.80;;;18.40;99.90;;;;;;5027760;28;20132;-72
2022/07/10 12:49:12;;;;;;;7.68;1.92;;;18.40;99.90;;;;;;5029198;28;20352;-72
2022/07/10 12:51:50;;;;;;;5.85;1.83;;;18.40;99.90;;;;;;5006881;28;20227;-72
2022/07/10 12:54:37;;;;;;;3.50;1.70;;;18.30;99.90;;;;;;5028330;28;20057;-72
2022/07/10 12:57:05;;;;;;;5.50;1.80;;;18.20;99.90;;;;;;5027945;28;20393;-72
2022/07/10 12:59:36;;;;;;;7.03;1.67;;;18.10;99.90;;;;;;5026837;28;20065;-72